createdAt,value
2018-07-08T00:02:29.306Z,22.06
2018-07-08T00:04:59.476Z,22.01
2018-07-08T00:07:28.596Z,22.00
2018-07-08T00:09:58.236Z,21.97
2018-07-08T00:12:27.328Z,21.92
2018-07-08T00:14:57.260Z,21.90
2018-07-08T00:17:27.786Z,21.87
2018-07-08T00:19:57.002Z,21.83
2018-07-08T00:22:26.073Z,21.80
2018-07-08T00:24:55.572Z,21.76
2018-07-08T00:27:24.659Z,21.71
2018-07-08T00:29:53.928Z,21.66
2018-07-08T00:32:23.047Z,21.62
2018-07-08T00:34:52.094Z,21.57
2018-07-08T00:37:21.358Z,21.52
2018-07-08T00:39:50.602Z,21.48
2018-07-08T00:42:21.773Z,21.46
2018-07-08T00:44:50.664Z,21.42
2018-07-08T00:47:21.142Z,21.38
2018-07-08T00:49:50.582Z,21.36
2018-07-08T00:52:19.657Z,21.31
2018-07-08T00:54:48.696Z,21.30
2018-07-08T00:57:20.412Z,21.27
2018-07-08T00:59:49.763Z,21.24
2018-07-08T01:02:19.008Z,21.22
2018-07-08T01:04:48.094Z,21.19
2018-07-08T01:07:17.784Z,21.16
2018-07-08T01:09:46.804Z,21.13
2018-07-08T01:12:16.709Z,21.10
2018-07-08T01:14:45.848Z,21.07
2018-07-08T01:17:14.855Z,21.04
2018-07-08T01:19:45.272Z,21.00
2018-07-08T01:22:16.081Z,20.97
2018-07-08T01:24:45.402Z,20.93
2018-07-08T01:27:16.628Z,20.90
2018-07-08T01:29:45.695Z,20.89
2018-07-08T01:32:14.821Z,20.86
2018-07-08T01:34:44.699Z,20.83
2018-07-08T01:37:14.272Z,20.80
2018-07-08T01:39:45.417Z,20.79
2018-07-08T01:42:16.276Z,20.76
2018-07-08T01:44:45.959Z,20.73
2018-07-08T01:47:18.539Z,20.71
2018-07-08T01:49:49.918Z,20.68
2018-07-08T01:52:19.008Z,20.63
2018-07-08T01:54:48.208Z,20.56
2018-07-08T01:57:17.287Z,20.49
2018-07-08T01:59:46.536Z,20.44
2018-07-08T02:02:15.584Z,20.38
2018-07-08T02:04:44.696Z,20.33
2018-07-08T02:07:15.688Z,20.27
2018-07-08T02:09:45.057Z,20.23
2018-07-08T02:12:14.725Z,20.18
2018-07-08T02:14:44.908Z,20.16
2018-07-08T02:17:14.373Z,20.12
2018-07-08T02:19:43.491Z,20.05
2018-07-08T02:22:12.565Z,20.00
2018-07-08T02:24:41.736Z,19.95
2018-07-08T02:27:11.041Z,19.93
2018-07-08T02:29:40.307Z,19.92
2018-07-08T02:32:10.544Z,19.89
2018-07-08T02:34:39.889Z,19.87
2018-07-08T02:37:09.089Z,19.84
2018-07-08T02:39:38.465Z,19.80
2018-07-08T02:42:10.105Z,19.72
2018-07-08T02:44:39.197Z,19.60
2018-07-08T02:47:08.273Z,19.51
2018-07-08T02:49:37.330Z,19.43
2018-07-08T02:52:06.388Z,19.39
2018-07-08T02:54:35.685Z,19.34
2018-07-08T02:57:04.842Z,19.30
2018-07-08T02:59:34.120Z,19.25
2018-07-08T03:02:35.072Z,19.19
2018-07-08T03:05:04.257Z,19.02
2018-07-08T03:07:34.271Z,18.92
2018-07-08T03:10:04.185Z,18.83
2018-07-08T03:12:34.621Z,18.76
2018-07-08T03:15:07.194Z,18.65
2018-07-08T03:17:36.236Z,18.58
2018-07-08T03:20:05.328Z,18.53
2018-07-08T03:22:34.971Z,18.49
2018-07-08T03:25:04.800Z,18.47
2018-07-08T03:27:34.299Z,18.44
2018-07-08T03:30:04.667Z,18.43
2018-07-08T03:32:34.389Z,18.42
2018-07-08T03:35:04.304Z,18.39
2018-07-08T03:37:34.300Z,18.36
2018-07-08T03:40:04.491Z,18.33
2018-07-08T03:42:35.272Z,18.30
2018-07-08T03:45:04.384Z,18.27
2018-07-08T03:47:35.068Z,18.25
2018-07-08T03:50:05.085Z,18.26
2018-07-08T03:52:34.463Z,18.26
2018-07-08T03:55:05.459Z,18.31
2018-07-08T03:57:36.868Z,18.39
2018-07-08T04:00:06.075Z,18.55
2018-07-08T04:02:37.805Z,18.73
2018-07-08T04:05:06.944Z,18.96
2018-07-08T04:07:37.905Z,19.20
2018-07-08T04:10:06.939Z,19.49
2018-07-08T04:12:35.984Z,19.78
2018-07-08T04:15:05.364Z,20.10
2018-07-08T04:17:34.531Z,20.41
2018-07-08T04:20:04.497Z,20.65
2018-07-08T04:22:36.800Z,20.88
2018-07-08T04:25:06.382Z,21.11
2018-07-08T04:27:35.508Z,21.30
2018-07-08T04:30:06.306Z,21.53
2018-07-08T04:32:35.400Z,21.75
2018-07-08T04:35:04.684Z,21.98
2018-07-08T04:37:35.468Z,22.18
2018-07-08T04:40:04.840Z,22.36
2018-07-08T04:42:34.592Z,22.51
2018-07-08T04:45:05.008Z,22.69
2018-07-08T04:47:34.615Z,22.90
2018-07-08T04:50:04.643Z,23.09
2018-07-08T04:52:34.764Z,23.30
2018-07-08T04:55:04.656Z,23.51
2018-07-08T04:57:34.995Z,23.72
2018-07-08T05:00:05.227Z,23.94
2018-07-08T05:02:34.702Z,24.08
2018-07-08T05:05:04.860Z,24.14
2018-07-08T05:07:34.677Z,24.15
2018-07-08T05:10:05.069Z,24.23
2018-07-08T05:12:35.174Z,24.34
2018-07-08T05:15:04.756Z,24.49
2018-07-08T05:17:34.673Z,24.64
2018-07-08T05:20:04.831Z,24.73
2018-07-08T05:22:34.761Z,24.79
2018-07-08T05:25:05.213Z,24.81
2018-07-08T05:27:34.655Z,24.85
2018-07-08T05:30:05.589Z,24.87
2018-07-08T05:32:36.505Z,24.89
2018-07-08T05:35:06.061Z,24.96
2018-07-08T05:37:35.166Z,25.10
2018-07-08T05:40:04.999Z,25.26
2018-07-08T05:42:35.185Z,25.34
2018-07-08T05:45:04.958Z,25.38
2018-07-08T05:47:34.951Z,25.43
2018-07-08T05:50:06.474Z,25.54
2018-07-08T05:52:35.636Z,25.68
2018-07-08T05:55:04.846Z,25.82
2018-07-08T05:57:35.006Z,25.99
2018-07-08T06:01:02.820Z,26.09
2018-07-08T06:03:31.920Z,26.16
2018-07-08T06:06:01.006Z,26.24
2018-07-08T06:08:31.444Z,26.39
2018-07-08T06:11:02.644Z,26.52
2018-07-08T06:13:33.563Z,26.68
2018-07-08T06:16:02.444Z,26.85
2018-07-08T06:18:31.516Z,27.04
2018-07-08T06:21:01.044Z,27.18
2018-07-08T06:23:30.238Z,27.26
2018-07-08T06:25:59.950Z,27.33
2018-07-08T06:28:29.438Z,27.45
2018-07-08T06:30:58.582Z,27.65
2018-07-08T06:33:28.132Z,27.90
2018-07-08T06:35:57.325Z,28.22
2018-07-08T06:38:26.459Z,28.51
2018-07-08T06:40:56.118Z,28.83
2018-07-08T06:43:26.123Z,29.12
2018-07-08T06:45:59.003Z,29.38
2018-07-08T06:48:31.532Z,29.62
2018-07-08T06:51:02.290Z,29.93
2018-07-08T06:53:33.365Z,30.18
2018-07-08T06:56:04.648Z,30.39
2018-07-08T06:58:35.423Z,30.65
2018-07-08T07:01:06.570Z,30.82
2018-07-08T07:03:37.698Z,31.02
2018-07-08T07:06:08.308Z,31.35
2018-07-08T07:08:38.166Z,31.67
2018-07-08T07:11:08.749Z,31.92
2018-07-08T07:13:40.254Z,32.15
2018-07-08T07:16:10.602Z,32.41
2018-07-08T07:18:41.112Z,32.58
2018-07-08T07:24:13.766Z,32.74
2018-07-08T07:27:04.837Z,32.69
2018-07-08T07:29:48.380Z,32.66
2018-07-08T07:35:26.293Z,32.48
2018-07-08T07:38:17.746Z,32.47
2018-07-08T07:40:51.048Z,32.57
2018-07-08T07:43:37.175Z,32.77
2018-07-08T07:46:20.005Z,33.10
2018-07-08T07:48:53.069Z,33.38
2018-07-08T07:51:39.819Z,33.44
2018-07-08T07:54:29.331Z,33.40
2018-07-08T07:57:26.179Z,33.15
2018-07-08T08:00:12.092Z,32.88
2018-07-08T08:02:45.965Z,32.90
2018-07-08T08:05:20.881Z,32.95
2018-07-08T08:08:11.332Z,32.92
2018-07-08T08:10:59.644Z,32.92
2018-07-08T08:13:36.644Z,32.98
2018-07-08T08:16:09.936Z,32.90
2018-07-08T08:18:41.495Z,32.72
2018-07-08T08:21:13.245Z,32.58
2018-07-08T08:23:47.808Z,32.47
2018-07-08T08:26:17.923Z,32.24
2018-07-08T08:28:48.739Z,32.05
2018-07-08T08:31:19.544Z,31.76
2018-07-08T08:35:11.166Z,31.52
2018-07-08T08:37:43.075Z,31.22
2018-07-08T08:40:16.770Z,30.98
2018-07-08T08:42:49.455Z,30.75
2018-07-08T08:45:22.173Z,30.66
2018-07-08T08:47:51.248Z,30.58
2018-07-08T08:50:21.701Z,30.48
2018-07-08T08:52:50.950Z,30.50
2018-07-08T08:55:20.400Z,30.62
2018-07-08T08:57:50.150Z,30.78
2018-07-08T09:00:19.990Z,30.87
2018-07-08T09:02:49.166Z,30.84
2018-07-08T09:05:18.861Z,30.89
2018-07-08T09:07:50.267Z,31.04
2018-07-08T09:10:21.777Z,31.24
2018-07-08T09:12:52.378Z,31.44
2018-07-08T09:15:23.454Z,31.57
2018-07-08T09:17:55.770Z,31.79
2018-07-08T09:20:27.283Z,32.10
2018-07-08T09:22:56.774Z,32.31
2018-07-08T09:25:26.556Z,32.31
2018-07-08T09:27:57.679Z,32.17
2018-07-08T09:30:30.701Z,31.91
2018-07-08T09:33:07.035Z,31.57
2018-07-08T09:35:37.464Z,31.25
2018-07-08T09:38:11.869Z,31.02
2018-07-08T09:40:48.046Z,30.76
2018-07-08T09:43:19.412Z,30.61
2018-07-08T09:45:49.373Z,30.63
2018-07-08T09:48:18.788Z,30.75
2018-07-08T09:50:48.105Z,30.96
2018-07-08T09:53:19.051Z,31.20
2018-07-08T09:55:49.804Z,31.37
2018-07-08T09:58:21.264Z,31.47
2018-07-08T10:00:51.936Z,31.44
2018-07-08T10:03:21.683Z,31.45
2018-07-08T10:05:52.467Z,31.50
2018-07-08T10:08:22.010Z,31.36
2018-07-08T10:10:53.311Z,31.19
2018-07-08T10:13:23.095Z,31.07
2018-07-08T10:15:54.590Z,30.93
2018-07-08T10:18:24.207Z,30.83
2018-07-08T10:20:54.119Z,30.84
2018-07-08T10:23:24.527Z,30.84
2018-07-08T10:25:54.823Z,30.79
2018-07-08T10:28:25.096Z,30.87
2018-07-08T10:30:55.276Z,30.89
2018-07-08T10:33:25.989Z,30.92
2018-07-08T10:36:04.689Z,30.86
2018-07-08T10:38:38.038Z,30.81
2018-07-08T10:41:07.929Z,30.86
2018-07-08T10:43:37.205Z,30.88
2018-07-08T10:46:06.497Z,31.01
2018-07-08T10:48:36.647Z,31.35
2018-07-08T10:51:06.556Z,31.50
2018-07-08T10:53:36.528Z,31.50
2018-07-08T10:56:06.163Z,31.46
2018-07-08T10:58:36.818Z,31.47
2018-07-08T11:01:06.907Z,31.59
2018-07-08T11:03:36.294Z,31.75
2018-07-08T11:06:06.571Z,31.90
2018-07-08T11:08:36.428Z,32.07
2018-07-08T11:11:06.501Z,32.13
2018-07-08T11:13:36.320Z,32.08
2018-07-08T11:16:05.544Z,31.95
2018-07-08T11:18:35.394Z,31.89
2018-07-08T11:21:05.365Z,31.75
2018-07-08T11:23:35.034Z,31.61
2018-07-08T11:26:05.693Z,31.26
2018-07-08T11:28:35.756Z,30.89
2018-07-08T11:31:04.911Z,30.75
2018-07-08T11:33:35.047Z,30.75
2018-07-08T11:36:06.608Z,30.74
2018-07-08T11:38:37.731Z,30.66
2018-07-08T11:41:09.650Z,30.44
2018-07-08T11:43:38.689Z,30.25
2018-07-08T11:46:09.631Z,30.31
2018-07-08T11:48:38.777Z,30.52
2018-07-08T11:51:09.968Z,30.67
2018-07-08T11:53:40.251Z,30.74
2018-07-08T11:56:12.191Z,30.85
2018-07-08T11:58:42.526Z,30.87
2018-07-08T12:01:13.670Z,30.87
2018-07-08T12:03:44.170Z,30.92
2018-07-08T12:06:14.443Z,31.04
2018-07-08T12:08:46.966Z,31.08
2018-07-08T12:11:18.005Z,30.85
2018-07-08T12:13:49.123Z,30.52
2018-07-08T12:16:24.918Z,30.18
2018-07-08T12:18:56.679Z,29.95
2018-07-08T12:21:28.305Z,29.86
2018-07-08T12:23:58.308Z,29.80
2018-07-08T12:26:29.036Z,29.71
2018-07-08T12:28:58.447Z,29.69
2018-07-08T12:31:29.213Z,29.74
2018-07-08T12:34:03.511Z,29.80
2018-07-08T12:36:32.973Z,29.86
2018-07-08T12:39:03.424Z,29.87
2018-07-08T12:41:34.762Z,29.86
2018-07-08T12:44:04.019Z,29.87
2018-07-08T12:46:34.121Z,29.91
2018-07-08T12:49:03.962Z,30.01
2018-07-08T12:51:33.379Z,30.10
2018-07-08T12:54:02.721Z,30.11
2018-07-08T12:56:33.702Z,30.21
2018-07-08T12:59:03.448Z,30.37
2018-07-08T13:01:33.642Z,30.55
2018-07-08T13:04:03.260Z,30.57
2018-07-08T13:06:36.296Z,30.65
2018-07-08T13:09:06.406Z,30.83
2018-07-08T13:11:36.933Z,31.02
2018-07-08T13:14:06.474Z,31.24
2018-07-08T13:16:36.434Z,31.38
2018-07-08T13:19:07.014Z,31.44
2018-07-08T13:21:40.841Z,31.40
2018-07-08T13:24:14.768Z,31.32
2018-07-08T13:26:44.762Z,31.24
2018-07-08T13:29:14.017Z,31.15
2018-07-08T13:31:44.833Z,31.14
2018-07-08T13:34:14.186Z,31.16
2018-07-08T13:36:43.369Z,31.14
2018-07-08T13:39:13.190Z,31.13
2018-07-08T13:41:43.534Z,31.16
2018-07-08T13:44:14.871Z,31.21
2018-07-08T13:46:46.336Z,31.17
2018-07-08T13:49:16.449Z,31.01
2018-07-08T13:51:47.290Z,30.85
2018-07-08T13:54:16.544Z,30.65
2018-07-08T13:56:47.976Z,30.51
2018-07-08T13:59:18.158Z,30.43
2018-07-08T14:01:51.308Z,30.35
2018-07-08T14:04:22.024Z,30.21
2018-07-08T14:06:53.837Z,30.10
2018-07-08T14:09:22.932Z,29.99
2018-07-08T14:11:52.528Z,30.01
2018-07-08T14:14:22.051Z,30.12
2018-07-08T14:16:53.715Z,30.29
2018-07-08T14:19:22.849Z,30.45
2018-07-08T14:21:52.245Z,30.61
2018-07-08T14:24:22.822Z,30.75
2018-07-08T14:26:52.599Z,30.83
2018-07-08T14:29:22.011Z,30.84
2018-07-08T14:31:54.399Z,30.73
2018-07-08T14:34:23.952Z,30.63
2018-07-08T14:36:53.759Z,30.57
2018-07-08T14:39:23.983Z,30.54
2018-07-08T14:41:54.120Z,30.50
2018-07-08T14:44:23.689Z,30.51
2018-07-08T14:46:54.369Z,30.50
2018-07-08T14:49:23.697Z,30.46
2018-07-08T14:51:54.146Z,30.40
2018-07-08T14:54:23.795Z,30.38
2018-07-08T14:56:53.488Z,30.39
2018-07-08T14:59:23.365Z,30.43
2018-07-08T15:01:58.691Z,30.55
2018-07-08T15:04:28.974Z,30.64
2018-07-08T15:06:59.215Z,30.71
2018-07-08T15:09:29.147Z,30.83
2018-07-08T15:11:59.847Z,30.86
2018-07-08T15:14:30.278Z,30.84
2018-07-08T15:17:00.362Z,30.77
2018-07-08T15:19:30.847Z,30.70
2018-07-08T15:22:00.571Z,30.70
2018-07-08T15:24:30.988Z,30.70
2018-07-08T15:27:01.278Z,30.75
2018-07-08T15:29:33.404Z,30.82
2018-07-08T15:32:03.838Z,30.78
2018-07-08T15:34:35.093Z,30.68
2018-07-08T15:37:04.724Z,30.52
2018-07-08T15:39:34.931Z,30.36
2018-07-08T15:42:04.878Z,30.23
2018-07-08T15:44:35.015Z,30.18
2018-07-08T15:47:04.769Z,30.20
2018-07-08T15:49:34.916Z,30.25
2018-07-08T15:52:05.019Z,30.26
2018-07-08T15:54:34.190Z,30.22
2018-07-08T15:57:03.820Z,30.15
2018-07-08T15:59:33.634Z,30.07
2018-07-08T16:02:03.188Z,29.97
2018-07-08T16:04:32.792Z,29.82
2018-07-08T16:07:02.871Z,29.70
2018-07-08T16:09:32.846Z,29.67
2018-07-08T16:12:03.766Z,29.69
2018-07-08T16:14:33.134Z,29.70
2018-07-08T16:41:02.542Z,27.96
2018-07-08T16:44:37.498Z,28.28
2018-07-08T16:47:07.606Z,28.55
2018-07-08T16:49:38.180Z,28.78
2018-07-08T16:52:08.799Z,28.97
2018-07-08T16:54:38.695Z,29.06
2018-07-08T16:57:08.670Z,29.08
2018-07-08T16:59:38.408Z,29.06
2018-07-08T17:02:08.275Z,29.04
2018-07-08T17:04:37.701Z,29.08
2018-07-08T17:07:07.776Z,29.16
2018-07-08T17:09:37.502Z,29.25
2018-07-08T17:12:08.350Z,29.34
2018-07-08T17:14:38.473Z,29.30
2018-07-08T17:17:08.325Z,29.25
2018-07-08T17:19:38.120Z,29.21
2018-07-08T17:22:08.019Z,29.14
2018-07-08T17:24:37.478Z,29.09
2018-07-08T17:27:06.867Z,29.03
2018-07-08T17:29:36.061Z,29.00
2018-07-08T17:32:06.802Z,28.93
2018-07-08T17:34:41.216Z,28.86
2018-07-08T17:37:11.338Z,28.81
2018-07-08T17:39:41.159Z,28.79
2018-07-08T17:42:10.448Z,28.75
2018-07-08T17:44:41.015Z,28.74
2018-07-08T17:47:10.840Z,28.73
2018-07-08T17:49:40.081Z,28.74
2018-07-08T17:52:11.707Z,28.75
2018-07-08T17:54:41.479Z,28.74
2018-07-08T17:57:12.261Z,28.71
2018-07-08T17:59:42.073Z,28.84
2018-07-08T18:02:15.256Z,29.12
2018-07-08T18:04:44.637Z,29.31
2018-07-08T18:07:14.224Z,29.06
2018-07-08T18:09:43.928Z,28.84
2018-07-08T18:12:19.893Z,28.70
2018-07-08T18:14:49.571Z,28.62
2018-07-08T18:17:20.610Z,28.57
2018-07-08T18:19:50.803Z,28.52
2018-07-08T18:22:20.833Z,28.48
2018-07-08T18:24:54.230Z,28.49
2018-07-08T18:27:23.544Z,28.45
2018-07-08T18:29:53.940Z,28.41
2018-07-08T18:32:23.437Z,28.36
2018-07-08T18:34:54.576Z,28.32
2018-07-08T18:37:24.366Z,28.28
2018-07-08T18:39:55.959Z,28.23
2018-07-08T18:42:26.691Z,28.19
2018-07-08T18:44:56.421Z,28.14
2018-07-08T18:47:27.436Z,28.09
2018-07-08T18:49:58.146Z,28.05
2018-07-08T18:52:27.568Z,28.00
2018-07-08T18:54:58.813Z,27.94
2018-07-08T18:57:29.000Z,27.83
2018-07-08T18:59:58.881Z,27.76
2018-07-08T19:02:31.387Z,27.68
2018-07-08T19:05:01.478Z,27.60
2018-07-08T19:07:32.428Z,27.53
2018-07-08T19:10:03.456Z,27.44
2018-07-08T19:12:33.569Z,27.37
2018-07-08T19:15:03.101Z,27.29
2018-07-08T19:17:32.748Z,27.22
2018-07-08T19:20:01.905Z,27.15
2018-07-08T19:22:32.331Z,27.06
2018-07-08T19:25:02.628Z,26.96
2018-07-08T19:27:32.129Z,26.87
2018-07-08T19:30:02.595Z,26.80
2018-07-08T19:32:34.831Z,26.71
2018-07-08T19:35:04.733Z,26.62
2018-07-08T19:37:35.295Z,26.53
2018-07-08T19:40:07.522Z,26.46
2018-07-08T19:42:37.539Z,26.38
2018-07-08T19:45:08.627Z,26.29
2018-07-08T19:47:40.278Z,26.22
2018-07-08T19:50:09.988Z,26.14
2018-07-08T19:52:40.908Z,26.06
2018-07-08T19:55:11.267Z,25.99
2018-07-08T19:57:40.729Z,25.89
2018-07-08T20:00:10.298Z,25.81
2018-07-08T20:02:40.915Z,25.76
2018-07-08T20:05:16.712Z,25.69
2018-07-08T20:07:47.271Z,25.61
2018-07-08T20:10:18.010Z,25.53
2018-07-08T20:12:47.384Z,25.47
2018-07-08T20:15:17.417Z,25.38
2018-07-08T20:17:48.181Z,25.33
2018-07-08T20:20:18.277Z,25.25
2018-07-08T20:22:47.402Z,25.19
2018-07-08T20:25:16.969Z,25.13
2018-07-08T20:27:46.720Z,25.06
2018-07-08T20:30:16.039Z,25.01
2018-07-08T20:32:45.786Z,24.93
2018-07-08T20:35:15.452Z,24.88
2018-07-08T20:37:44.860Z,24.83
2018-07-08T20:40:14.358Z,24.76
2018-07-08T20:42:44.084Z,24.69
2018-07-08T20:45:14.200Z,24.62
2018-07-08T20:47:43.530Z,24.56
2018-07-08T20:50:12.792Z,24.48
2018-07-08T20:52:41.955Z,24.41
2018-07-08T20:55:11.115Z,24.35
2018-07-08T20:57:40.169Z,24.31
2018-07-08T21:00:09.325Z,24.26
2018-07-08T21:02:38.651Z,24.22
2018-07-08T21:05:08.070Z,24.18
2018-07-08T21:07:38.582Z,24.12
2018-07-08T21:10:08.987Z,24.04
2018-07-08T21:12:38.224Z,23.99
2018-07-08T21:15:10.325Z,23.95
2018-07-08T21:17:39.509Z,23.90
2018-07-08T21:20:08.903Z,23.87
2018-07-08T21:22:38.232Z,23.81
2018-07-08T21:25:09.819Z,23.76
2018-07-08T21:27:39.049Z,23.74
2018-07-08T21:30:08.165Z,23.70
2018-07-08T21:32:37.435Z,23.67
2018-07-08T21:35:08.902Z,23.63
2018-07-08T21:37:38.001Z,23.58
2018-07-08T21:40:07.461Z,23.55
2018-07-08T21:42:36.513Z,23.50
2018-07-08T21:45:05.647Z,23.43
2018-07-08T21:47:34.871Z,23.38
2018-07-08T21:50:04.104Z,23.34
2018-07-08T21:52:33.554Z,23.28
2018-07-08T21:55:02.789Z,23.23
2018-07-08T21:57:32.843Z,23.18
2018-07-08T22:00:02.033Z,23.14
2018-07-08T22:02:33.724Z,23.12
2018-07-08T22:05:03.466Z,23.06
2018-07-08T22:07:38.260Z,23.03
2018-07-08T22:10:07.581Z,22.98
2018-07-08T22:12:36.984Z,22.95
2018-07-08T22:15:06.269Z,22.91
2018-07-08T22:17:37.247Z,22.87
2018-07-08T22:20:06.568Z,22.83
2018-07-08T22:22:37.427Z,22.80
2018-07-08T22:25:06.619Z,22.78
2018-07-08T22:27:35.676Z,22.73
2018-07-08T22:30:04.896Z,22.69
2018-07-08T22:32:34.093Z,22.66
2018-07-08T22:35:04.117Z,22.62
2018-07-08T22:37:33.892Z,22.57
2018-07-08T22:40:05.372Z,22.54
2018-07-08T22:42:34.480Z,22.51
2018-07-08T22:45:04.944Z,22.47
2018-07-08T22:47:34.655Z,22.43
2018-07-08T22:50:07.901Z,22.39
2018-07-08T22:52:36.985Z,22.32
2018-07-08T22:55:06.215Z,22.29
2018-07-08T22:57:35.321Z,22.23
2018-07-08T23:00:26.360Z,22.18
2018-07-08T23:04:01.041Z,22.07
2018-07-08T23:06:32.534Z,21.88
2018-07-08T23:09:01.919Z,21.84
2018-07-08T23:11:31.024Z,21.82
2018-07-08T23:14:00.655Z,21.80
2018-07-08T23:16:30.044Z,21.79
2018-07-08T23:18:59.231Z,21.75
2018-07-08T23:21:30.929Z,21.74
2018-07-08T23:24:00.013Z,21.69
2018-07-08T23:26:29.300Z,21.67
2018-07-08T23:28:59.137Z,21.63
2018-07-08T23:31:28.294Z,21.57
2018-07-08T23:33:58.821Z,21.54
2018-07-08T23:36:27.932Z,21.51
2018-07-08T23:38:57.134Z,21.47
2018-07-08T23:41:26.188Z,21.43
2018-07-08T23:43:55.756Z,21.38
2018-07-08T23:46:24.969Z,21.37
2018-07-08T23:48:54.009Z,21.34
2018-07-08T23:51:23.308Z,21.30
2018-07-08T23:53:52.708Z,21.28
2018-07-08T23:56:21.841Z,21.26
2018-07-08T23:58:51.825Z,21.23
